Time;durP1;ratioP1;P1;durP2;ratioP2;P2;SDS_P1;SDS_P2;PMS_P1;PMS_P2;Temp;Humidity;BMP_temperature;BMP_pressure;BME280_temperature;BME280_humidity;BME280_pressure;Samples;Min_cycle;Max_cycle;Signal;HPM_P1;HPM_P2
2022/03/01 00:00:44;;;;;;;13.48;5.78;;;4.00;76.00;;;;;;4967970;28;20045;-73
2022/03/01 00:03:09;;;;;;;16.77;5.75;;;4.10;76.40;;;;;;4965217;28;20031;-73
2022/03/01 00:05:35;;;;;;;11.90;5.82;;;4.20;76.90;;;;;;4965382;28;20047;-73
2022/03/01 00:08:01;;;;;;;11.77;5.30;;;4.20;76.60;;;;;;4968021;28;20524;-73
2022/03/01 00:10:27;;;;;;;11.10;5.38;;;4.20;76.40;;;;;;4969725;28;20485;-73
2022/03/01 00:12:53;;;;;;;10.73;5.95;;;3.90;76.40;;;;;;4970067;28;20434;-73
2022/03/01 00:15:18;;;;;;;9.85;5.88;;;3.80;76.30;;;;;;4970013;28;20489;-73
2022/03/01 00:17:44;;;;;;;11.85;5.35;;;3.80;76.10;;;;;;4969424;28;20081;-73
2022/03/01 00:20:10;;;;;;;11.02;5.13;;;3.80;75.90;;;;;;4971901;28;20039;-73
2022/03/01 00:22:36;;;;;;;11.50;5.82;;;3.90;76.30;;;;;;4969141;28;20030;-73
2022/03/01 00:25:02;;;;;;;13.02;5.35;;;3.90;75.90;;;;;;4970895;28;20089;-73
2022/03/01 00:27:28;;;;;;;11.95;5.57;;;3.90;75.70;;;;;;4967669;28;20027;-73
2022/03/01 00:29:54;;;;;;;10.27;5.85;;;3.90;75.60;;;;;;4968779;28;20041;-73
2022/03/01 00:32:19;;;;;;;9.40;5.30;;;3.70;75.60;;;;;;4967721;28;20341;-73
2022/03/01 00:34:45;;;;;;;8.85;4.80;;;3.80;76.10;;;;;;4971076;28;20489;-73
2022/03/01 00:37:10;;;;;;;11.05;4.95;;;3.80;75.60;;;;;;4969991;28;20035;-73
2022/03/01 00:39:36;;;;;;;11.23;5.30;;;3.80;75.90;;;;;;4970006;28;20034;-73
2022/03/01 00:42:02;;;;;;;10.57;6.40;;;3.80;76.10;;;;;;4968608;28;20042;-73
2022/03/01 00:44:28;;;;;;;9.05;5.30;;;3.80;76.20;;;;;;4969734;28;20042;-73
2022/03/01 00:46:53;;;;;;;10.23;5.32;;;3.80;76.20;;;;;;4967380;28;20046;-73
2022/03/01 00:49:19;;;;;;;12.57;5.45;;;3.80;76.30;;;;;;4971407;28;20090;-73
2022/03/01 00:51:45;;;;;;;9.45;5.60;;;3.80;75.80;;;;;;4968908;28;20042;-73
2022/03/01 00:54:10;;;;;;;11.18;5.82;;;3.80;76.00;;;;;;4970745;28;20027;-73
2022/03/01 00:56:36;;;;;;;11.00;5.30;;;3.90;75.80;;;;;;4969279;28;20027;-73
2022/03/01 00:59:02;;;;;;;10.85;5.28;;;3.80;75.30;;;;;;4971024;28;20022;-73
2022/03/01 01:01:27;;;;;;;11.27;5.43;;;3.80;75.70;;;;;;4970283;28;20440;-73
2022/03/01 01:03:53;;;;;;;10.60;5.72;;;3.70;75.90;;;;;;4969667;28;20069;-73
2022/03/01 01:06:19;;;;;;;12.95;5.57;;;3.80;76.00;;;;;;4970091;28;20101;-73
2022/03/01 01:08:44;;;;;;;11.48;6.40;;;3.90;75.90;;;;;;4969014;28;20034;-73
2022/03/01 01:11:10;;;;;;;9.75;5.45;;;3.80;76.30;;;;;;4969519;28;20039;-73
2022/03/01 01:13:36;;;;;;;9.05;5.13;;;3.70;76.40;;;;;;4964460;28;20038;-73
2022/03/01 01:16:02;;;;;;;11.02;5.15;;;3.70;76.30;;;;;;4970306;28;20062;-73
2022/03/01 01:18:28;;;;;;;9.48;5.03;;;3.80;76.70;;;;;;4970289;28;20026;-73
2022/03/01 01:20:53;;;;;;;10.15;5.72;;;3.70;76.20;;;;;;4968583;28;20039;-73
2022/03/01 01:23:19;;;;;;;9.27;5.18;;;3.70;75.90;;;;;;4968811;28;20027;-73
2022/03/01 01:25:45;;;;;;;9.52;5.35;;;3.70;76.80;;;;;;4968223;28;20058;-73
2022/03/01 01:28:12;;;;;;;11.50;5.00;;;3.70;76.40;;;;;;4966063;28;20114;-73
2022/03/01 01:30:38;;;;;;;9.82;4.90;;;3.80;76.10;;;;;;4967969;28;20069;-73
2022/03/01 01:33:03;;;;;;;9.77;5.28;;;3.60;76.60;;;;;;4964862;28;20658;-73
2022/03/01 01:35:33;;;;;;;11.90;5.43;;;3.60;77.30;;;;;;4972804;28;20039;-73
2022/03/01 01:37:59;;;;;;;10.82;6.57;;;3.60;76.80;;;;;;4973261;28;20389;-73
2022/03/01 01:40:28;;;;;;;11.30;5.80;;;3.50;77.40;;;;;;4972861;28;20126;-73
2022/03/01 01:42:55;;;;;;;9.57;5.25;;;3.60;77.30;;;;;;4973819;28;20071;-73
2022/03/01 01:45:21;;;;;;;11.85;5.55;;;3.70;76.50;;;;;;4972295;28;20469;-73
2022/03/01 01:47:48;;;;;;;9.82;5.20;;;3.80;76.50;;;;;;4973365;28;20039;-73
2022/03/01 01:50:15;;;;;;;13.95;5.85;;;3.80;76.60;;;;;;4973608;28;20452;-72
2022/03/01 01:52:47;;;;;;;10.75;5.80;;;3.80;76.50;;;;;;4971325;28;20501;-73
2022/03/01 01:55:14;;;;;;;10.55;5.70;;;3.80;76.50;;;;;;4973289;28;20032;-73
2022/03/01 01:57:40;;;;;;;10.05;5.03;;;3.80;77.40;;;;;;4971086;28;20035;-73
2022/03/01 02:00:07;;;;;;;10.07;5.57;;;3.80;77.40;;;;;;4971167;28;20034;-73
2022/03/01 02:02:33;;;;;;;12.45;5.63;;;3.70;77.00;;;;;;4972819;28;20031;-73
2022/03/01 02:05:00;;;;;;;9.25;5.40;;;3.60;76.90;;;;;;4976219;28;20092;-73
2022/03/01 02:07:25;;;;;;;10.05;5.43;;;3.50;76.60;;;;;;4976109;28;20038;-73
2022/03/01 02:09:52;;;;;;;10.55;5.25;;;3.40;76.80;;;;;;4975475;28;20469;-73
2022/03/01 02:12:18;;;;;;;8.57;4.88;;;3.20;77.00;;;;;;4970376;28;20030;-73
2022/03/01 02:14:44;;;;;;;8.60;5.22;;;3.00;77.40;;;;;;4973885;28;20507;-73
2022/03/01 02:17:10;;;;;;;10.15;6.03;;;3.00;77.70;;;;;;4978151;28;20034;-73
2022/03/01 02:19:38;;;;;;;9.25;5.00;;;3.00;78.00;;;;;;4979738;28;20031;-72
2022/03/01 02:22:06;;;;;;;9.93;5.22;;;2.80;78.50;;;;;;4973882;28;20035;-73
2022/03/01 02:24:31;;;;;;;9.75;5.15;;;2.90;78.40;;;;;;4975185;28;20495;-73
2022/03/01 02:27:01;;;;;;;9.20;4.78;;;2.70;78.30;;;;;;4977567;28;20034;-73
2022/03/01 02:29:27;;;;;;;9.60;4.45;;;2.60;79.30;;;;;;4974996;28;20089;-73
2022/03/01 02:31:54;;;;;;;8.50;5.03;;;2.50;79.40;;;;;;4972153;28;20093;-73
2022/03/01 02:34:20;;;;;;;10.05;4.63;;;2.60;79.30;;;;;;4973707;28;20053;-73
2022/03/01 02:36:46;;;;;;;12.77;5.45;;;2.50;79.90;;;;;;4974623;28;20114;-73
2022/03/01 02:39:13;;;;;;;11.15;5.32;;;2.50;79.80;;;;;;4979116;28;20035;-73
2022/03/01 02:41:41;;;;;;;10.18;5.88;;;2.40;80.10;;;;;;4964576;28;20090;-72
2022/03/01 02:44:07;;;;;;;9.57;5.28;;;2.50;80.40;;;;;;4972101;28;20474;-73
2022/03/01 02:46:34;;;;;;;10.93;4.85;;;2.60;80.30;;;;;;4972361;28;20124;-73
2022/03/01 02:49:00;;;;;;;10.95;5.38;;;2.50;80.50;;;;;;4973114;28;20035;-73
2022/03/01 02:51:26;;;;;;;8.55;4.60;;;2.50;80.80;;;;;;4972312;28;20035;-73
2022/03/01 02:53:52;;;;;;;9.25;5.00;;;2.50;80.50;;;;;;4980953;28;20478;-73
2022/03/01 02:56:18;;;;;;;11.98;5.68;;;2.60;80.10;;;;;;4973737;28;20034;-73
2022/03/01 02:58:44;;;;;;;10.35;5.07;;;2.50;80.70;;;;;;4975717;28;20062;-73
2022/03/01 03:01:09;;;;;;;10.32;5.32;;;2.60;79.80;;;;;;4972956;28;20062;-73
2022/03/01 03:03:35;;;;;;;11.25;5.45;;;2.60;79.80;;;;;;4972758;28;20110;-73
2022/03/01 03:06:01;;;;;;;10.02;4.53;;;2.50;79.70;;;;;;4969606;28;20070;-73
2022/03/01 03:08:27;;;;;;;11.50;5.80;;;2.40;79.80;;;;;;4971409;28;20493;-72
2022/03/01 03:10:53;;;;;;;10.35;4.28;;;2.40;80.20;;;;;;4971018;28;20506;-72
2022/03/01 03:13:19;;;;;;;10.82;6.07;;;2.40;80.60;;;;;;4971510;28;20030;-72
2022/03/01 03:15:46;;;;;;;8.40;4.82;;;2.40;80.50;;;;;;4970109;28;20058;-73
2022/03/01 03:18:13;;;;;;;9.40;5.38;;;2.40;80.60;;;;;;4972237;28;20486;-72
2022/03/01 03:20:39;;;;;;;12.70;5.57;;;2.40;80.70;;;;;;4970878;28;20065;-72
2022/03/01 03:23:05;;;;;;;12.73;6.05;;;2.40;80.80;;;;;;4972758;28;20128;-72
2022/03/01 03:25:31;;;;;;;10.80;5.90;;;2.40;81.20;;;;;;4968249;28;20596;-72
2022/03/01 03:27:57;;;;;;;11.45;5.25;;;2.30;81.40;;;;;;4969629;28;20023;-73
2022/03/01 03:30:23;;;;;;;11.02;6.10;;;2.30;82.30;;;;;;4967419;28;20105;-72
2022/03/01 03:32:49;;;;;;;13.63;6.45;;;2.30;82.60;;;;;;4971395;28;20393;-72
2022/03/01 03:35:14;;;;;;;11.90;6.10;;;2.30;82.80;;;;;;4971251;28;20117;-72
2022/03/01 03:37:40;;;;;;;11.77;6.53;;;2.10;83.00;;;;;;4971701;28;20042;-72
2022/03/01 03:40:06;;;;;;;11.32;5.57;;;2.00;83.50;;;;;;4968657;28;20070;-73
2022/03/01 03:42:32;;;;;;;17.52;5.95;;;1.90;84.00;;;;;;4972066;28;20122;-72
2022/03/01 03:44:58;;;;;;;13.07;6.00;;;1.90;84.20;;;;;;4966607;28;20379;-73
2022/03/01 03:47:23;;;;;;;15.23;5.88;;;1.80;84.60;;;;;;4971023;28;20038;-72
2022/03/01 03:49:49;;;;;;;12.60;6.25;;;1.80;84.70;;;;;;4969770;28;20038;-73
2022/03/01 03:52:15;;;;;;;11.23;5.97;;;1.80;85.00;;;;;;4970570;28;20043;-73
2022/03/01 03:54:41;;;;;;;14.40;6.32;;;1.70;85.20;;;;;;4969206;28;20113;-72
2022/03/01 03:57:08;;;;;;;12.80;5.68;;;1.70;85.20;;;;;;4969698;28;20099;-72
2022/03/01 03:59:38;;;;;;;13.18;6.20;;;1.70;85.30;;;;;;4969953;28;20030;-73
2022/03/01 04:02:06;;;;;;;9.30;5.55;;;1.80;85.10;;;;;;4969581;28;20050;-72
2022/03/01 04:04:32;;;;;;;10.55;5.72;;;1.70;85.00;;;;;;4962381;28;20038;-72
2022/03/01 04:06:58;;;;;;;13.15;7.07;;;1.60;85.30;;;;;;4962382;28;20058;-72
2022/03/01 04:09:24;;;;;;;11.77;5.60;;;1.60;85.40;;;;;;4964519;28;20413;-72
2022/03/01 04:11:50;;;;;;;11.20;5.72;;;1.60;85.20;;;;;;4962756;28;20045;-72
2022/03/01 04:14:17;;;;;;;14.63;6.75;;;1.50;85.60;;;;;;4963797;28;20054;-72
2022/03/01 04:16:44;;;;;;;12.23;5.68;;;1.50;85.70;;;;;;4964285;28;20171;-72
2022/03/01 04:19:10;;;;;;;11.73;6.05;;;1.50;85.90;;;;;;4964252;28;20039;-72
2022/03/01 04:21:36;;;;;;;11.23;6.00;;;1.50;86.00;;;;;;4960141;28;20042;-72
2022/03/01 04:24:02;;;;;;;14.45;6.50;;;1.50;86.00;;;;;;4964023;28;20046;-72
2022/03/01 04:26:28;;;;;;;15.07;6.35;;;1.50;86.10;;;;;;4965801;28;20077;-72
2022/03/01 04:28:54;;;;;;;13.15;5.85;;;1.40;86.20;;;;;;4964849;28;20126;-72
2022/03/01 04:31:21;;;;;;;13.48;7.00;;;1.50;86.00;;;;;;4966169;28;20416;-72
2022/03/01 04:33:47;;;;;;;12.68;6.93;;;1.50;86.10;;;;;;4966636;28;20425;-72
2022/03/01 04:36:13;;;;;;;13.15;6.45;;;1.40;86.30;;;;;;4967330;28;20405;-72
2022/03/01 04:38:39;;;;;;;11.20;5.82;;;1.20;86.80;;;;;;4966798;28;20035;-72
2022/03/01 04:41:05;;;;;;;14.27;7.13;;;1.20;87.20;;;;;;4965219;28;20041;-72
2022/03/01 04:43:30;;;;;;;13.52;5.80;;;1.30;86.80;;;;;;4962717;28;20034;-72
2022/03/01 04:45:56;;;;;;;11.25;5.40;;;1.20;86.60;;;;;;4966268;28;20613;-72
2022/03/01 04:48:23;;;;;;;10.45;6.07;;;1.20;86.60;;;;;;4964521;28;20062;-72
2022/03/01 04:50:50;;;;;;;11.68;5.45;;;1.20;86.60;;;;;;4964067;28;20039;-72
2022/03/01 04:53:15;;;;;;;12.23;5.82;;;1.30;85.90;;;;;;4966191;28;20049;-72
2022/03/01 04:55:41;;;;;;;9.68;5.18;;;1.30;86.00;;;;;;4963775;28;20022;-72
2022/03/01 04:58:07;;;;;;;16.73;5.80;;;1.30;86.00;;;;;;4963671;28;20037;-72
2022/03/01 05:00:32;;;;;;;10.07;5.10;;;1.20;86.10;;;;;;4962475;28;20038;-72
2022/03/01 05:02:58;;;;;;;14.27;6.10;;;1.30;86.30;;;;;;4963772;28;20023;-72
2022/03/01 05:05:24;;;;;;;10.70;5.88;;;1.20;86.30;;;;;;4962532;28;20050;-72
2022/03/01 05:07:49;;;;;;;11.38;5.53;;;1.20;86.20;;;;;;4960609;28;20026;-72
2022/03/01 05:10:19;;;;;;;10.90;5.38;;;1.20;86.40;;;;;;4953598;28;21086;-72
2022/03/01 05:12:52;;;;;;;12.07;4.70;;;1.10;86.20;;;;;;4943192;28;20042;-72
2022/03/01 05:15:20;;;;;;;11.30;5.30;;;1.10;85.80;;;;;;4943340;28;20027;-72
2022/03/01 05:17:47;;;;;;;11.00;5.47;;;1.20;85.60;;;;;;4950885;28;20477;-72
2022/03/01 05:20:14;;;;;;;12.65;6.05;;;1.00;85.70;;;;;;4962096;28;20057;-72
2022/03/01 05:22:41;;;;;;;10.75;6.53;;;1.10;85.80;;;;;;4961523;28;20457;-72
2022/03/01 05:25:09;;;;;;;11.38;5.88;;;1.00;85.80;;;;;;4960773;28;20113;-72
2022/03/01 05:27:40;;;;;;;10.60;5.32;;;1.00;86.20;;;;;;4962582;28;20042;-72
2022/03/01 05:30:08;;;;;;;10.13;5.43;;;0.90;85.60;;;;;;4959845;28;20391;-72
2022/03/01 05:32:39;;;;;;;10.00;5.60;;;0.80;85.40;;;;;;4954145;28;20058;-72
2022/03/01 05:35:09;;;;;;;9.25;4.50;;;0.90;85.40;;;;;;4945096;28;20058;-72
2022/03/01 05:37:35;;;;;;;8.63;5.15;;;0.80;85.50;;;;;;4954822;28;20038;-72
2022/03/01 05:40:02;;;;;;;9.75;4.97;;;0.60;86.40;;;;;;4952433;28;20084;-72
2022/03/01 05:42:27;;;;;;;10.27;4.78;;;0.40;87.20;;;;;;4957356;28;20042;-72
2022/03/01 05:44:55;;;;;;;11.45;5.97;;;0.30;86.90;;;;;;4963256;28;20034;-72
2022/03/01 05:47:21;;;;;;;9.65;5.15;;;0.60;86.20;;;;;;4959123;28;20035;-72
2022/03/01 05:49:47;;;;;;;9.85;5.20;;;0.60;85.80;;;;;;4961442;28;20089;-72
2022/03/01 05:52:13;;;;;;;13.30;5.65;;;0.60;85.60;;;;;;4960445;28;20504;-72
2022/03/01 05:54:38;;;;;;;11.20;5.20;;;0.50;85.70;;;;;;4961970;28;20055;-72
2022/03/01 05:57:04;;;;;;;7.80;4.45;;;0.40;86.40;;;;;;4958934;28;21056;-72
2022/03/01 05:59:30;;;;;;;9.77;4.82;;;0.40;86.00;;;;;;4961843;28;20026;-72
2022/03/01 06:01:55;;;;;;;9.70;5.05;;;0.40;86.70;;;;;;4960908;28;20035;-72
2022/03/01 06:04:21;;;;;;;10.07;4.88;;;0.50;85.60;;;;;;4960594;28;20122;-72
2022/03/01 06:06:47;;;;;;;12.18;5.55;;;0.40;85.70;;;;;;4970418;28;20559;-72
2022/03/01 06:09:12;;;;;;;11.90;5.00;;;0.40;86.10;;;;;;4966470;28;20623;-72
2022/03/01 06:11:38;;;;;;;11.55;5.82;;;0.30;86.50;;;;;;4971248;28;20044;-72
2022/03/01 06:14:05;;;;;;;12.20;6.55;;;0.30;86.60;;;;;;4961708;28;20031;-72
2022/03/01 06:16:32;;;;;;;12.80;6.28;;;0.40;86.40;;;;;;4963751;28;20443;-70
2022/03/01 06:18:57;;;;;;;13.70;7.07;;;0.30;86.50;;;;;;4964466;28;20082;-72
2022/03/01 06:21:23;;;;;;;14.82;7.43;;;0.20;86.90;;;;;;4965665;28;20098;-72
2022/03/01 06:23:49;;;;;;;11.82;5.45;;;0.30;86.60;;;;;;4968646;28;20043;-72
2022/03/01 06:26:15;;;;;;;10.48;5.45;;;0.30;86.60;;;;;;4964042;28;20026;-72
2022/03/01 06:28:41;;;;;;;12.10;6.53;;;0.40;86.20;;;;;;4970428;28;20042;-74
2022/03/01 06:31:07;;;;;;;10.95;5.60;;;0.60;86.00;;;;;;4969875;28;20744;-74
2022/03/01 06:33:33;;;;;;;11.10;5.32;;;0.60;86.00;;;;;;4970438;28;20034;-73
2022/03/01 06:35:58;;;;;;;10.90;6.10;;;0.60;86.10;;;;;;4971725;28;20093;-73
2022/03/01 06:38:25;;;;;;;11.48;5.50;;;0.80;86.10;;;;;;4962374;28;20053;-73
2022/03/01 06:40:55;;;;;;;10.63;5.07;;;0.80;86.40;;;;;;4967051;28;20035;-72
2022/03/01 06:43:21;;;;;;;17.23;6.60;;;0.80;86.40;;;;;;4966559;28;20508;-72
2022/03/01 06:45:47;;;;;;;11.45;6.25;;;0.80;87.00;;;;;;4961724;28;20027;-72
2022/03/01 06:48:13;;;;;;;13.55;5.85;;;0.90;86.60;;;;;;4958279;28;20141;-72
2022/03/01 06:50:38;;;;;;;11.57;6.82;;;1.00;86.60;;;;;;4973322;28;20034;-72
2022/03/01 06:53:04;;;;;;;11.98;5.72;;;1.10;86.40;;;;;;4967328;28;20054;-72
2022/03/01 06:55:30;;;;;;;14.25;5.53;;;1.10;86.50;;;;;;4968077;28;20035;-71
2022/03/01 06:57:56;;;;;;;11.55;5.97;;;1.20;86.60;;;;;;4965075;28;20057;-72
2022/03/01 07:00:22;;;;;;;11.23;6.00;;;1.10;86.50;;;;;;4963379;28;20485;-71
2022/03/01 07:02:48;;;;;;;10.35;5.28;;;1.00;86.50;;;;;;4955913;28;20031;-72
2022/03/01 07:05:15;;;;;;;11.13;6.25;;;1.00;86.50;;;;;;4956382;28;20051;-72
2022/03/01 07:07:41;;;;;;;14.48;6.10;;;1.00;86.50;;;;;;4950057;28;20121;-72
2022/03/01 07:10:11;;;;;;;14.57;5.78;;;1.10;86.30;;;;;;4952617;28;20039;-72
2022/03/01 07:12:37;;;;;;;11.25;5.82;;;1.30;86.40;;;;;;4958827;28;20121;-72
2022/03/01 07:15:04;;;;;;;10.75;5.70;;;1.20;86.40;;;;;;4964317;28;20038;-72
2022/03/01 07:17:30;;;;;;;12.07;6.70;;;1.30;86.50;;;;;;4962817;28;20118;-72
2022/03/01 07:19:56;;;;;;;8.98;5.28;;;1.30;86.40;;;;;;4964080;28;20153;-71
2022/03/01 07:22:22;;;;;;;12.93;5.43;;;1.30;86.50;;;;;;4964838;28;20031;-72
2022/03/01 07:24:47;;;;;;;11.90;5.90;;;1.40;87.20;;;;;;4964283;28;20041;-72
2022/03/01 07:27:13;;;;;;;10.27;5.20;;;1.40;87.80;;;;;;4962222;28;20041;-72
2022/03/01 07:29:39;;;;;;;11.77;6.15;;;1.30;87.40;;;;;;4962835;28;20438;-72
2022/03/01 07:32:06;;;;;;;13.32;6.40;;;1.20;87.20;;;;;;4951163;28;20047;-73
2022/03/01 07:34:32;;;;;;;10.95;5.88;;;1.10;87.30;;;;;;4946260;28;20070;-72
2022/03/01 07:36:58;;;;;;;12.60;6.28;;;1.20;87.20;;;;;;4964285;28;20076;-72
2022/03/01 07:39:24;;;;;;;12.20;6.82;;;1.40;86.60;;;;;;4965006;28;20184;-72
2022/03/01 07:41:50;;;;;;;14.00;5.75;;;1.50;86.50;;;;;;4964202;28;20031;-71
2022/03/01 07:44:16;;;;;;;11.77;6.10;;;1.60;86.90;;;;;;4963628;28;20046;-72
2022/03/01 07:46:42;;;;;;;12.75;5.78;;;1.60;87.10;;;;;;4965235;28;20038;-72
2022/03/01 07:49:08;;;;;;;15.00;6.28;;;1.60;87.10;;;;;;4963230;28;20038;-72
2022/03/01 07:51:34;;;;;;;14.55;6.70;;;1.60;87.00;;;;;;4964400;28;20114;-72
2022/03/01 07:53:59;;;;;;;10.80;5.90;;;1.50;87.20;;;;;;4963331;28;20053;-71
2022/03/01 07:56:25;;;;;;;13.35;6.38;;;1.60;87.50;;;;;;4963085;28;20039;-72
2022/03/01 07:58:52;;;;;;;16.73;6.63;;;1.60;87.30;;;;;;4964044;28;20027;-72
2022/03/01 08:01:19;;;;;;;13.52;6.53;;;1.50;87.50;;;;;;4964909;28;20035;-72
2022/03/01 08:03:44;;;;;;;15.57;6.85;;;1.60;88.30;;;;;;4960954;28;20166;-71
2022/03/01 08:06:10;;;;;;;13.88;6.63;;;1.60;87.20;;;;;;4965186;28;20500;-72
2022/03/01 08:08:36;;;;;;;12.95;5.93;;;1.70;86.90;;;;;;4967679;28;20034;-70
2022/03/01 08:11:02;;;;;;;14.10;7.05;;;1.80;86.80;;;;;;4968361;28;20058;-72
2022/03/01 08:13:29;;;;;;;24.10;11.23;;;1.90;86.50;;;;;;4967376;28;20129;-71
2022/03/01 08:15:54;;;;;;;13.35;8.00;;;2.00;87.40;;;;;;4967134;28;20081;-72
2022/03/01 08:18:20;;;;;;;14.13;6.22;;;2.30;88.10;;;;;;4966886;28;20384;-72
2022/03/01 08:20:46;;;;;;;15.13;6.95;;;2.30;86.00;;;;;;4967827;28;20050;-71
2022/03/01 08:23:11;;;;;;;20.58;12.07;;;2.30;86.00;;;;;;4968331;28;20034;-71
2022/03/01 08:25:37;;;;;;;18.10;10.00;;;2.30;85.20;;;;;;4967275;28;20027;-71
2022/03/01 08:28:03;;;;;;;17.25;8.98;;;2.30;85.00;;;;;;4965834;28;20511;-71
2022/03/01 08:30:29;;;;;;;13.85;7.75;;;2.40;85.10;;;;;;4967271;28;20600;-71
2022/03/01 08:32:55;;;;;;;14.50;7.80;;;2.60;85.50;;;;;;4968211;28;20039;-71
2022/03/01 08:35:21;;;;;;;13.13;6.88;;;2.60;84.90;;;;;;4965935;28;20047;-73
2022/03/01 08:37:48;;;;;;;14.15;7.00;;;2.70;85.20;;;;;;4967119;28;20062;-73
2022/03/01 08:40:18;;;;;;;14.13;7.10;;;2.80;85.40;;;;;;4967134;28;20593;-71
2022/03/01 08:42:44;;;;;;;14.65;7.38;;;2.80;85.30;;;;;;4966085;28;20030;-72
2022/03/01 08:45:10;;;;;;;15.80;7.20;;;2.80;84.80;;;;;;4966041;28;20042;-72
2022/03/01 08:47:37;;;;;;;12.35;7.53;;;2.60;84.40;;;;;;4967731;28;20027;-72
2022/03/01 08:50:03;;;;;;;12.60;6.97;;;2.70;84.40;;;;;;4967937;28;20043;-73
2022/03/01 08:52:29;;;;;;;12.63;6.72;;;2.70;85.00;;;;;;4966947;28;20441;-72
2022/03/01 08:54:55;;;;;;;14.10;7.65;;;2.80;84.80;;;;;;4968096;28;20031;-72
2022/03/01 08:57:21;;;;;;;14.82;7.28;;;2.90;84.50;;;;;;4967605;28;20030;-72
2022/03/01 08:59:46;;;;;;;14.65;6.80;;;2.90;84.00;;;;;;4968065;28;20564;-72
2022/03/01 09:02:12;;;;;;;12.38;6.13;;;3.00;84.10;;;;;;4966780;28;20049;-72
2022/03/01 09:04:38;;;;;;;11.02;6.05;;;2.90;83.30;;;;;;4966706;28;20097;-72
2022/03/01 09:07:06;;;;;;;20.77;7.78;;;3.00;83.30;;;;;;4965872;28;20043;-72
2022/03/01 09:09:32;;;;;;;14.65;7.93;;;3.10;83.30;;;;;;4966798;28;20042;-73
2022/03/01 09:11:58;;;;;;;14.43;6.93;;;3.30;84.90;;;;;;4967134;28;20576;-75
2022/03/01 09:14:24;;;;;;;17.35;9.05;;;3.30;83.90;;;;;;4966312;28;20038;-72
2022/03/01 09:16:49;;;;;;;26.40;9.38;;;3.40;83.90;;;;;;4967697;28;20042;-72
2022/03/01 09:19:16;;;;;;;12.65;8.27;;;3.40;84.00;;;;;;4966972;28;20118;-72
2022/03/01 09:21:42;;;;;;;15.77;7.18;;;3.50;82.80;;;;;;4968129;28;20035;-74
2022/03/01 09:24:07;;;;;;;13.85;7.72;;;3.70;84.90;;;;;;4966273;28;20046;-70
2022/03/01 09:26:33;;;;;;;12.98;7.25;;;3.90;82.90;;;;;;4966702;28;20073;-73
2022/03/01 09:28:59;;;;;;;11.07;7.70;;;3.90;82.80;;;;;;4966725;28;20035;-73
2022/03/01 09:31:25;;;;;;;12.68;6.50;;;3.90;82.50;;;;;;4966043;28;20073;-73
2022/03/01 09:33:50;;;;;;;11.20;6.80;;;3.90;82.20;;;;;;4965692;28;20035;-73
2022/03/01 09:36:16;;;;;;;14.27;7.38;;;4.00;82.00;;;;;;4963855;28;20509;-74
2022/03/01 09:38:42;;;;;;;13.95;6.57;;;4.00;81.60;;;;;;4964176;28;20142;-73
2022/03/01 09:41:10;;;;;;;13.18;6.65;;;4.10;81.30;;;;;;4966765;28;20675;-72
2022/03/01 09:43:37;;;;;;;14.32;8.05;;;4.50;84.40;;;;;;4966513;28;20054;-73
2022/03/01 09:46:03;;;;;;;13.15;7.55;;;4.30;79.80;;;;;;4966446;28;20055;-74
2022/03/01 09:48:29;;;;;;;14.35;6.68;;;4.30;79.70;;;;;;4966654;28;20027;-73
2022/03/01 09:50:57;;;;;;;15.18;7.82;;;4.40;80.20;;;;;;4967646;28;20493;-74
2022/03/01 09:53:22;;;;;;;13.75;6.57;;;4.50;78.50;;;;;;4967464;28;20031;-73
2022/03/01 09:55:50;;;;;;;15.13;7.50;;;4.30;78.80;;;;;;4969781;28;20098;-73
2022/03/01 09:58:16;;;;;;;14.02;7.60;;;4.30;79.40;;;;;;4969399;28;20031;-72
2022/03/01 10:00:43;;;;;;;16.77;8.73;;;4.30;78.70;;;;;;4969651;28;20053;-72
2022/03/01 10:03:09;;;;;;;17.15;7.13;;;4.40;78.80;;;;;;4968858;28;20039;-72
2022/03/01 10:05:37;;;;;;;14.13;7.10;;;4.40;78.10;;;;;;4970241;28;20062;-72
2022/03/01 10:08:13;;;;;;;12.60;7.55;;;4.50;77.30;;;;;;4968386;28;20083;-72
2022/03/01 10:10:47;;;;;;;12.30;7.32;;;5.00;76.60;;;;;;4969574;28;20105;-72
2022/03/01 10:13:23;;;;;;;15.30;6.65;;;5.10;76.30;;;;;;4970257;28;20034;-72
2022/03/01 10:16:02;;;;;;;13.90;6.75;;;5.20;76.40;;;;;;4967335;28;20117;-72
2022/03/01 10:18:32;;;;;;;10.80;6.80;;;5.20;76.30;;;;;;4967939;28;20023;-72
2022/03/01 10:21:25;;;;;;;13.18;6.55;;;5.20;75.10;;;;;;4969923;28;20022;-72
2022/03/01 10:23:58;;;;;;;13.02;6.88;;;5.20;74.30;;;;;;4966895;28;20054;-72
2022/03/01 10:26:26;;;;;;;12.55;6.65;;;5.30;74.60;;;;;;4970545;28;20525;-72
2022/03/01 10:28:54;;;;;;;11.38;6.07;;;5.50;74.30;;;;;;4983909;28;20113;-72
2022/03/01 10:31:22;;;;;;;15.85;6.00;;;5.70;73.70;;;;;;4969148;28;20122;-72
2022/03/01 10:34:08;;;;;;;13.73;6.35;;;5.80;71.00;;;;;;4961178;28;20366;-72
2022/03/01 10:36:47;;;;;;;10.63;5.95;;;5.80;72.80;;;;;;4948156;28;20094;-72
2022/03/01 10:39:15;;;;;;;14.00;6.00;;;5.80;71.00;;;;;;4963237;28;20049;-72
2022/03/01 10:41:46;;;;;;;11.23;7.10;;;5.70;70.30;;;;;;4967631;28;20030;-72
2022/03/01 10:44:21;;;;;;;11.27;6.30;;;5.80;71.00;;;;;;4968945;28;20489;-72
2022/03/01 10:47:05;;;;;;;11.85;5.20;;;6.10;70.50;;;;;;4968724;28;20031;-72
2022/03/01 10:49:33;;;;;;;10.32;6.22;;;6.20;70.60;;;;;;4969259;28;20137;-72
2022/03/01 10:52:06;;;;;;;11.65;5.88;;;6.30;69.90;;;;;;4967924;28;20097;-72
2022/03/01 10:54:34;;;;;;;11.35;6.32;;;6.30;69.30;;;;;;4970398;28;20029;-72
2022/03/01 10:57:02;;;;;;;9.63;5.55;;;6.30;68.80;;;;;;4968831;28;20035;-72
2022/03/01 10:59:29;;;;;;;10.45;5.82;;;6.40;68.20;;;;;;4966859;28;20050;-72
2022/03/01 11:01:56;;;;;;;11.70;6.22;;;6.70;68.30;;;;;;4964342;28;20965;-72
2022/03/01 11:04:26;;;;;;;10.15;6.28;;;6.70;66.90;;;;;;4962315;28;20113;-72
2022/03/01 11:06:54;;;;;;;11.23;6.07;;;6.40;66.40;;;;;;4964526;28;20058;-72
2022/03/01 11:09:25;;;;;;;11.95;6.25;;;6.40;66.40;;;;;;4966288;28;20350;-73
2022/03/01 11:11:53;;;;;;;19.98;9.32;;;6.60;67.50;;;;;;4968603;28;20039;-72
2022/03/01 11:14:31;;;;;;;13.15;6.70;;;6.80;68.40;;;;;;4969391;28;20034;-72
2022/03/01 11:17:18;;;;;;;13.15;6.95;;;7.30;67.10;;;;;;4967138;28;20505;-72
2022/03/01 11:20:01;;;;;;;13.68;7.40;;;7.50;66.60;;;;;;4967732;28;20031;-73
2022/03/01 11:22:44;;;;;;;10.98;6.55;;;7.40;66.40;;;;;;4963867;28;20034;-72
2022/03/01 11:25:29;;;;;;;13.98;7.20;;;7.20;65.90;;;;;;4967869;28;20046;-73
2022/03/01 11:28:05;;;;;;;16.60;8.20;;;7.40;67.30;;;;;;4966980;28;20374;-72
2022/03/01 11:30:36;;;;;;;11.18;6.90;;;7.80;67.90;;;;;;4967568;28;20027;-72
2022/03/01 11:33:01;;;;;;;13.15;7.80;;;7.80;67.00;;;;;;4965888;28;20042;-72
2022/03/01 11:35:30;;;;;;;11.50;6.90;;;7.70;66.80;;;;;;4967220;28;20035;-72
2022/03/01 11:38:02;;;;;;;12.52;7.22;;;7.60;65.80;;;;;;4966840;28;20440;-72
2022/03/01 11:40:32;;;;;;;13.65;6.97;;;7.80;66.80;;;;;;4966850;28;20070;-72
2022/03/01 11:43:20;;;;;;;12.65;7.53;;;7.50;65.80;;;;;;4965469;28;20031;-73
2022/03/01 11:45:54;;;;;;;11.52;6.60;;;7.80;66.10;;;;;;4965017;28;20441;-72
2022/03/01 11:48:23;;;;;;;14.77;8.20;;;8.30;68.00;;;;;;4965962;28;20118;-72
2022/03/01 11:51:03;;;;;;;16.25;7.85;;;8.50;66.30;;;;;;4966046;28;20050;-72
2022/03/01 11:53:35;;;;;;;13.45;7.28;;;8.40;65.20;;;;;;4964029;28;20501;-73
2022/03/01 11:56:02;;;;;;;16.33;8.65;;;8.60;66.00;;;;;;4968180;28;20042;-73
2022/03/01 11:58:28;;;;;;;16.52;8.18;;;8.60;65.60;;;;;;4967013;28;20046;-73
2022/03/01 12:00:58;;;;;;;14.68;7.90;;;8.70;66.20;;;;;;4964732;28;20034;-73
2022/03/01 12:03:27;;;;;;;14.80;8.65;;;8.90;66.30;;;;;;4967082;28;20044;-72
2022/03/01 12:05:55;;;;;;;15.20;8.43;;;8.90;66.10;;;;;;4966783;28;20043;-73
2022/03/01 12:08:21;;;;;;;13.95;7.95;;;8.50;65.40;;;;;;4968302;28;20093;-73
2022/03/01 12:11:09;;;;;;;14.73;8.82;;;8.20;65.20;;;;;;4964058;28;20035;-73
2022/03/01 12:13:46;;;;;;;13.43;7.80;;;8.10;65.00;;;;;;4963909;28;20120;-73
2022/03/01 12:16:26;;;;;;;11.07;7.43;;;8.00;65.90;;;;;;4966890;28;20045;-73
2022/03/01 12:18:51;;;;;;;16.50;8.18;;;8.40;66.30;;;;;;4966779;28;20374;-73
2022/03/01 12:21:17;;;;;;;14.55;8.07;;;8.50;67.00;;;;;;4966940;28;20060;-73
2022/03/01 12:23:46;;;;;;;14.32;8.20;;;8.50;66.10;;;;;;4968141;28;20034;-73
2022/03/01 12:26:15;;;;;;;13.73;8.18;;;8.40;65.00;;;;;;4967388;28;20466;-73
2022/03/01 12:28:46;;;;;;;15.48;7.30;;;8.40;65.20;;;;;;4965941;28;20057;-73
2022/03/01 12:31:23;;;;;;;12.38;7.40;;;8.30;64.90;;;;;;4966999;28;20654;-73
2022/03/01 12:34:00;;;;;;;14.90;8.10;;;8.60;66.20;;;;;;4966267;28;20058;-72
2022/03/01 12:36:27;;;;;;;11.38;7.00;;;8.70;65.10;;;;;;4966757;28;20081;-72
2022/03/01 12:39:13;;;;;;;17.08;8.07;;;8.80;65.80;;;;;;4967861;28;20504;-73
2022/03/01 12:41:44;;;;;;;12.45;6.97;;;8.80;66.00;;;;;;4966014;28;20058;-73
2022/03/01 12:44:12;;;;;;;15.23;8.98;;;9.10;64.70;;;;;;4965992;28;20504;-73
2022/03/01 12:46:38;;;;;;;14.25;8.23;;;9.20;64.40;;;;;;4966927;28;20517;-72
2022/03/01 12:49:08;;;;;;;13.10;8.85;;;9.20;63.70;;;;;;4965269;28;20110;-72